KHGR/HGR METAR and TAF weather

Enter ICAO airport designator
Station Type Date Time Source
KHGR METAR 2019/02/16 06:53 UTC NOAA

KHGR 160653Z AUTO 33009KT 10SM FEW090 03/M08 A2985 RMK AO2 SLP120 T00331078


Station Type Date Time Source
KHGR Decoded METAR 2019/02/16 06:53 UTC NOAA

HAGERSTOWN REGIONAL AIRPORT, MD, United States (KHGR) 39-42N 077-44W 224M
Feb 16, 2019 - 01:53 AM EST / 2019.02.16 0653 UTC
Wind: from the NNW (330 degrees) at 10 MPH (9 KT):0
Visibility: 10 mile(s):0
Sky conditions: mostly clear
Temperature: 37.9 F (3.3 C)
Dew Point: 18.0 F (-7.8 C)
Relative Humidity: 43%
Pressure (altimeter): 29.85 in. Hg (1010 hPa)
ob: KHGR 160653Z AUTO 33009KT 10SM FEW090 03/M08 A2985 RMK AO2 SLP120 T00331078
cycle: 7

Station Type Date Time Source
KHGR TAF UTC NOAA

Error!


Example: see airport list